createdAt,value
2023-02-02T00:02:56.022Z,79.68
2023-02-02T00:05:58.476Z,80.23
2023-02-02T00:09:02.240Z,80.60
2023-02-02T00:12:04.801Z,80.50
2023-02-02T00:15:07.689Z,79.76
2023-02-02T00:18:10.064Z,80.06
2023-02-02T00:21:12.444Z,80.83
2023-02-02T00:24:18.006Z,80.34
2023-02-02T00:27:20.301Z,79.88
2023-02-02T00:30:23.146Z,80.83
2023-02-02T00:33:26.816Z,80.63
2023-02-02T00:36:29.124Z,80.01
2023-02-02T00:39:31.705Z,80.41
2023-02-02T00:42:34.212Z,78.88
2023-02-02T00:45:37.933Z,79.99
2023-02-02T00:48:40.400Z,79.92
2023-02-02T00:51:42.838Z,80.37
2023-02-02T00:54:45.296Z,80.40
2023-02-02T00:57:48.216Z,79.97
2023-02-02T01:00:50.805Z,79.56
2023-02-02T01:03:53.296Z,79.60
2023-02-02T01:06:55.648Z,79.44
2023-02-02T01:09:58.115Z,80.94
2023-02-02T01:13:00.639Z,80.86
2023-02-02T01:16:04.196Z,81.24
2023-02-02T01:19:06.583Z,82.29
2023-02-02T01:22:09.388Z,81.83
2023-02-02T01:25:11.911Z,82.21
2023-02-02T01:28:14.339Z,82.44
2023-02-02T01:31:19.351Z,82.77
2023-02-02T01:34:21.968Z,81.84
2023-02-02T01:37:24.374Z,82.18
2023-02-02T01:40:26.796Z,81.75
2023-02-02T01:43:52.795Z,81.35
2023-02-02T01:46:55.210Z,81.69
2023-02-02T01:49:57.828Z,82.11
2023-02-02T01:53:04.843Z,81.84
2023-02-02T01:56:10.536Z,81.46
2023-02-02T01:59:15.909Z,81.33
2023-02-02T02:02:19.787Z,81.41
2023-02-02T02:05:38.301Z,81.17
2023-02-02T02:09:01.024Z,80.10
2023-02-02T02:12:03.645Z,80.44
2023-02-02T02:15:25.579Z,81.56
2023-02-02T02:18:44.511Z,81.21
2023-02-02T02:22:23.745Z,81.11
2023-02-02T02:26:03.384Z,82.08
2023-02-02T02:29:38.812Z,81.84
2023-02-02T02:33:00.223Z,82.12
2023-02-02T02:36:51.145Z,82.56
2023-02-02T02:40:28.309Z,81.91
2023-02-02T02:43:51.205Z,81.22
2023-02-02T02:46:54.295Z,81.11
2023-02-02T02:49:56.969Z,81.62
2023-02-02T02:53:13.111Z,81.70
2023-02-02T02:56:37.968Z,81.29
2023-02-02T02:59:54.169Z,82.05
2023-02-02T03:03:06.286Z,81.86
2023-02-02T03:06:19.741Z,82.04
2023-02-02T03:09:29.557Z,81.78
2023-02-02T03:12:31.932Z,82.29
2023-02-02T03:15:34.447Z,81.63
2023-02-02T03:18:37.615Z,82.03
2023-02-02T03:21:39.958Z,82.97
2023-02-02T03:24:42.352Z,83.14
2023-02-02T03:27:44.919Z,83.14
2023-02-02T03:30:48.765Z,84.33
2023-02-02T03:33:51.132Z,84.19
2023-02-02T03:36:53.423Z,84.09
2023-02-02T03:39:55.739Z,84.24
2023-02-02T03:42:58.280Z,83.69
2023-02-02T03:46:04.338Z,83.77
2023-02-02T03:49:06.757Z,84.00
2023-02-02T03:52:12.390Z,82.65
2023-02-02T03:55:14.848Z,82.84
2023-02-02T03:58:17.665Z,83.09
2023-02-02T04:01:27.638Z,83.00
2023-02-02T04:04:30.083Z,82.94
2023-02-02T04:07:32.481Z,82.45
2023-02-02T04:10:34.842Z,82.68
2023-02-02T04:13:37.216Z,82.05
2023-02-02T04:16:39.641Z,82.02
2023-02-02T04:19:42.209Z,82.86
2023-02-02T04:22:44.614Z,79.99
2023-02-02T04:25:50.986Z,78.79
2023-02-02T04:28:53.760Z,79.16
2023-02-02T04:31:56.352Z,79.22
2023-02-02T04:34:58.696Z,79.39
2023-02-02T04:38:01.047Z,80.32
2023-02-02T04:41:08.453Z,80.46
2023-02-02T04:44:15.954Z,80.76
2023-02-02T04:47:18.330Z,81.57
2023-02-02T04:50:20.781Z,81.95
2023-02-02T04:53:23.128Z,80.46
2023-02-02T04:56:25.486Z,80.72
2023-02-02T04:59:29.581Z,81.61
2023-02-02T05:02:32.052Z,80.87
2023-02-02T05:05:34.406Z,80.09
2023-02-02T05:08:37.325Z,80.85
2023-02-02T05:11:41.104Z,81.38
2023-02-02T05:14:43.496Z,81.62
2023-02-02T05:17:45.812Z,80.72
2023-02-02T05:20:48.253Z,80.49
2023-02-02T05:23:50.621Z,81.27
2023-02-02T05:26:54.941Z,81.25
2023-02-02T05:29:57.589Z,81.43
2023-02-02T05:32:59.954Z,80.54
2023-02-02T05:36:02.353Z,80.12
2023-02-02T05:39:05.667Z,79.98
2023-02-02T05:42:08.005Z,79.75
2023-02-02T05:45:10.973Z,79.81
2023-02-02T05:48:16.362Z,80.21
2023-02-02T05:51:24.167Z,80.19
2023-02-02T05:54:26.769Z,80.53
2023-02-02T05:57:29.125Z,80.17
2023-02-02T06:00:31.453Z,80.17
2023-02-02T06:03:33.984Z,80.66
2023-02-02T06:06:37.931Z,80.55
2023-02-02T06:09:40.332Z,80.57
2023-02-02T06:12:44.184Z,80.47
2023-02-02T06:15:46.656Z,79.73
2023-02-02T06:18:49.131Z,79.68
2023-02-02T06:21:51.540Z,79.40
2023-02-02T06:24:53.949Z,79.32
2023-02-02T06:28:00.543Z,79.51
2023-02-02T06:31:07.293Z,77.29
2023-02-02T06:34:14.585Z,78.43
2023-02-02T06:37:16.988Z,77.89
2023-02-02T06:40:19.485Z,77.54
2023-02-02T06:43:21.894Z,76.73
2023-02-02T06:46:24.279Z,76.35
2023-02-02T06:49:26.997Z,75.80
2023-02-02T06:52:29.535Z,76.21
2023-02-02T06:55:32.430Z,75.74
2023-02-02T06:58:35.296Z,75.42
2023-02-02T07:01:37.950Z,76.50
2023-02-02T07:04:40.327Z,75.76
2023-02-02T07:07:42.755Z,74.92
2023-02-02T07:11:10.485Z,75.26
2023-02-02T07:14:08.360Z,76.52
2023-02-02T07:17:11.780Z,75.53
2023-02-02T07:20:14.317Z,75.37
2023-02-02T07:23:16.726Z,76.16
2023-02-02T07:26:20.077Z,76.43
2023-02-02T07:29:22.577Z,76.48
2023-02-02T07:32:24.926Z,76.45
2023-02-02T07:35:29.366Z,76.14
2023-02-02T07:38:31.748Z,74.82
2023-02-02T07:41:36.149Z,73.46
2023-02-02T07:44:39.039Z,70.51
2023-02-02T07:47:41.451Z,68.17
2023-02-02T07:50:43.836Z,66.78
2023-02-02T07:53:49.061Z,66.04
2023-02-02T07:56:51.441Z,57.42
2023-02-02T07:59:54.671Z,52.27
2023-02-02T08:02:57.090Z,46.41
2023-02-02T08:06:00.159Z,42.54
2023-02-02T08:09:05.384Z,40.90
2023-02-02T08:12:07.845Z,39.20
2023-02-02T08:15:12.211Z,38.62
2023-02-02T08:18:14.597Z,38.70
2023-02-02T08:21:18.106Z,37.13
2023-02-02T08:24:20.490Z,37.19
2023-02-02T08:27:22.843Z,37.30
2023-02-02T08:30:25.780Z,38.16
2023-02-02T08:33:28.309Z,38.95
2023-02-02T08:36:31.377Z,37.95
2023-02-02T08:39:33.900Z,37.04
2023-02-02T08:42:36.416Z,38.86
2023-02-02T08:46:02.363Z,38.51
2023-02-02T08:49:05.193Z,38.33
2023-02-02T08:52:07.585Z,38.57
2023-02-02T08:55:10.440Z,39.03
2023-02-02T08:58:12.955Z,39.16
2023-02-02T09:01:18.278Z,38.66
2023-02-02T09:04:20.647Z,39.64
2023-02-02T09:07:23.064Z,41.47
2023-02-02T09:10:25.417Z,40.52
2023-02-02T09:13:27.860Z,39.32
2023-02-02T09:16:30.371Z,39.59
2023-02-02T09:19:32.934Z,37.93
2023-02-02T09:22:35.309Z,38.35
2023-02-02T09:25:37.637Z,37.59
2023-02-02T09:28:42.010Z,37.43
2023-02-02T09:31:44.509Z,36.79
2023-02-02T09:34:47.695Z,35.85
2023-02-02T09:37:50.106Z,35.11
2023-02-02T09:40:52.570Z,37.09
2023-02-02T09:44:00.697Z,37.01
2023-02-02T09:47:08.954Z,37.25
2023-02-02T09:50:26.714Z,38.15
2023-02-02T09:53:55.542Z,37.91
2023-02-02T09:57:01.874Z,37.37
2023-02-02T10:00:06.991Z,37.49
2023-02-02T10:03:36.394Z,37.72
2023-02-02T10:06:41.208Z,39.12
2023-02-02T10:09:48.099Z,39.39
2023-02-02T10:13:06.002Z,38.43
2023-02-02T10:16:19.534Z,37.72
2023-02-02T10:19:30.701Z,37.27
2023-02-02T10:22:34.401Z,35.50
2023-02-02T10:25:39.737Z,37.09
2023-02-02T10:28:50.171Z,37.82
2023-02-02T10:32:10.894Z,38.77
2023-02-02T10:35:48.395Z,36.17
2023-02-02T10:38:58.346Z,37.52
2023-02-02T10:42:16.077Z,37.90
2023-02-02T10:45:20.610Z,36.81
2023-02-02T10:48:34.611Z,38.40
2023-02-02T10:51:38.010Z,39.30
2023-02-02T10:54:57.265Z,39.82
2023-02-02T10:58:03.191Z,35.71
2023-02-02T11:01:11.419Z,34.85
2023-02-02T11:04:32.929Z,34.75
2023-02-02T11:07:36.948Z,35.84
2023-02-02T11:10:39.354Z,36.24
2023-02-02T11:13:47.954Z,37.23
2023-02-02T11:17:05.285Z,40.24
2023-02-02T11:20:24.428Z,42.22
2023-02-02T11:23:28.510Z,44.07
2023-02-02T11:26:42.274Z,45.70
2023-02-02T11:30:02.175Z,46.61
2023-02-02T11:33:28.431Z,48.04
2023-02-02T11:36:30.822Z,47.58
2023-02-02T11:39:33.185Z,49.05
2023-02-02T11:42:35.649Z,48.32
2023-02-02T11:45:41.602Z,48.55
2023-02-02T11:48:52.864Z,49.93
2023-02-02T11:51:59.479Z,50.80
2023-02-02T11:55:09.321Z,49.83
2023-02-02T11:58:25.152Z,50.31
2023-02-02T12:01:30.523Z,52.14
2023-02-02T12:04:32.982Z,51.99
2023-02-02T12:07:36.009Z,51.19
2023-02-02T12:10:42.213Z,52.11
2023-02-02T12:14:22.786Z,53.48
2023-02-02T12:17:38.741Z,51.87
2023-02-02T12:20:50.579Z,53.56
2023-02-02T12:24:13.197Z,53.41
2023-02-02T12:27:33.833Z,53.96
2023-02-02T12:31:02.373Z,53.99
2023-02-02T12:34:23.173Z,54.06
2023-02-02T12:37:37.482Z,54.48
2023-02-02T12:40:57.578Z,53.39
2023-02-02T12:44:36.587Z,53.72
2023-02-02T12:48:06.334Z,54.01
2023-02-02T12:51:20.168Z,53.70
2023-02-02T12:55:02.844Z,53.26
2023-02-02T12:58:17.811Z,53.44
2023-02-02T13:01:38.687Z,52.16
2023-02-02T13:04:59.136Z,53.74
2023-02-02T13:08:09.478Z,52.89
2023-02-02T13:11:32.822Z,53.42
2023-02-02T13:14:46.602Z,54.20
2023-02-02T13:17:56.310Z,53.12
2023-02-02T13:21:03.208Z,53.40
2023-02-02T13:24:08.330Z,53.43
2023-02-02T13:27:15.630Z,55.41
2023-02-02T13:30:32.338Z,54.78
2023-02-02T13:33:38.085Z,54.59
2023-02-02T13:36:44.152Z,55.39
2023-02-02T13:40:02.665Z,53.98
2023-02-02T13:43:42.493Z,54.50
2023-02-02T13:47:09.632Z,55.10
2023-02-02T13:50:16.603Z,54.17
2023-02-02T13:53:43.169Z,55.47
2023-02-02T13:56:53.446Z,55.08
2023-02-02T14:00:14.431Z,54.52
2023-02-02T14:03:44.855Z,55.69
2023-02-02T14:07:06.267Z,54.92
2023-02-02T14:10:31.544Z,55.23
2023-02-02T14:14:03.742Z,55.92
2023-02-02T14:17:28.714Z,56.54
2023-02-02T14:20:50.778Z,56.40
2023-02-02T14:23:55.752Z,56.98
2023-02-02T14:27:18.481Z,57.89
2023-02-02T14:30:24.733Z,57.49
2023-02-02T14:33:39.251Z,56.51
2023-02-02T14:36:55.015Z,56.16
2023-02-02T14:40:06.432Z,56.88
2023-02-02T14:43:36.502Z,57.09
2023-02-02T14:46:40.748Z,56.31
2023-02-02T14:49:43.176Z,56.79
2023-02-02T14:52:56.422Z,56.77
2023-02-02T14:56:16.115Z,57.80
2023-02-02T14:59:38.905Z,56.92
2023-02-02T15:02:42.221Z,57.84
2023-02-02T15:05:47.129Z,58.30
2023-02-02T15:09:28.004Z,58.30
2023-02-02T15:12:35.140Z,57.64
2023-02-02T15:15:38.654Z,57.44
2023-02-02T15:18:46.690Z,57.51
2023-02-02T15:21:53.207Z,58.05
2023-02-02T15:24:58.997Z,58.08
2023-02-02T15:28:39.205Z,58.05
2023-02-02T15:31:52.191Z,58.05
2023-02-02T15:35:02.976Z,59.00
2023-02-02T15:38:12.982Z,59.34
2023-02-02T15:41:23.925Z,60.22
2023-02-02T15:44:28.507Z,60.54
2023-02-02T15:47:34.903Z,61.02
2023-02-02T15:50:39.505Z,61.69
2023-02-02T15:53:41.901Z,61.77
2023-02-02T15:56:44.296Z,62.43
2023-02-02T15:59:46.743Z,63.23
2023-02-02T16:02:59.777Z,62.52
2023-02-02T16:06:06.236Z,62.62
2023-02-02T16:09:22.273Z,62.32
2023-02-02T16:12:24.777Z,62.40
2023-02-02T16:15:29.448Z,62.89
2023-02-02T16:18:32.368Z,62.15
2023-02-02T16:22:10.409Z,62.67
2023-02-02T16:25:17.205Z,62.70
2023-02-02T16:28:22.082Z,63.31
2023-02-02T16:31:25.373Z,64.40
2023-02-02T16:34:49.028Z,63.56
2023-02-02T16:37:51.475Z,63.58
2023-02-02T16:41:05.686Z,62.64
2023-02-02T16:44:45.449Z,62.49
2023-02-02T16:47:48.069Z,63.12
2023-02-02T16:51:08.426Z,63.05
2023-02-02T16:54:13.861Z,63.60
2023-02-02T16:57:21.096Z,64.35
2023-02-02T17:00:26.958Z,65.46
2023-02-02T17:03:33.753Z,65.47
2023-02-02T17:06:51.446Z,64.91
2023-02-02T17:10:12.685Z,65.79
2023-02-02T17:13:30.039Z,65.02
2023-02-02T17:16:32.740Z,65.25
2023-02-02T17:19:35.508Z,65.18
2023-02-02T17:22:42.424Z,66.38
2023-02-02T17:25:45.291Z,67.25
2023-02-02T17:28:47.883Z,66.82
2023-02-02T17:31:51.992Z,66.96
2023-02-02T17:34:54.575Z,67.37
2023-02-02T17:37:58.255Z,67.77
2023-02-02T17:41:03.191Z,67.38
2023-02-02T17:44:06.914Z,66.98
2023-02-02T17:47:13.219Z,67.37
2023-02-02T17:50:16.512Z,66.78
2023-02-02T17:53:21.513Z,66.27
2023-02-02T17:56:23.993Z,65.61
2023-02-02T17:59:26.724Z,65.38
2023-02-02T18:02:29.413Z,64.59
2023-02-02T18:05:31.845Z,65.18
2023-02-02T18:08:34.585Z,63.98
2023-02-02T18:11:37.253Z,64.40
2023-02-02T18:14:39.739Z,65.08
2023-02-02T18:17:42.929Z,65.75
2023-02-02T18:20:48.010Z,66.84
2023-02-02T18:23:50.649Z,67.81
2023-02-02T18:26:53.308Z,68.23
2023-02-02T18:29:55.941Z,68.43
2023-02-02T18:32:58.868Z,68.06
2023-02-02T18:36:01.595Z,68.47
2023-02-02T18:39:04.341Z,68.18
2023-02-02T18:42:07.193Z,69.10
2023-02-02T18:45:10.387Z,69.32
2023-02-02T18:48:13.027Z,70.07
2023-02-02T18:51:18.842Z,68.55
2023-02-02T18:54:22.416Z,68.77
2023-02-02T18:57:24.795Z,68.01
2023-02-02T19:00:27.618Z,68.04
2023-02-02T19:03:30.276Z,68.03
2023-02-02T19:06:51.341Z,67.45
2023-02-02T19:09:54.017Z,67.53
2023-02-02T19:13:14.754Z,68.34
2023-02-02T19:16:28.100Z,68.12
2023-02-02T19:19:34.581Z,67.43
2023-02-02T19:22:37.186Z,67.53
2023-02-02T19:25:40.906Z,68.18
2023-02-02T19:28:43.647Z,69.21
2023-02-02T19:31:50.930Z,69.07
2023-02-02T19:34:57.275Z,69.13
2023-02-02T19:38:02.451Z,68.89
2023-02-02T19:41:17.284Z,70.24
2023-02-02T19:44:22.964Z,69.02
2023-02-02T19:47:32.285Z,69.59
2023-02-02T19:50:40.947Z,68.89
2023-02-02T19:53:43.503Z,69.22
2023-02-02T19:56:47.152Z,69.46
2023-02-02T19:59:52.437Z,70.22
2023-02-02T20:03:05.020Z,68.52
2023-02-02T20:06:16.638Z,68.41
2023-02-02T20:09:20.556Z,69.55
2023-02-02T20:12:28.753Z,68.39
2023-02-02T20:15:34.568Z,69.04
2023-02-02T20:18:44.394Z,70.40
2023-02-02T20:21:51.297Z,70.94
2023-02-02T20:24:55.219Z,70.87
2023-02-02T20:28:02.517Z,71.37
2023-02-02T20:31:16.941Z,71.83
2023-02-02T20:34:30.047Z,71.70
2023-02-02T20:37:36.303Z,72.17
2023-02-02T20:40:38.898Z,72.47
2023-02-02T20:43:41.450Z,72.10
2023-02-02T20:46:44.058Z,72.61
2023-02-02T20:49:47.617Z,73.08
2023-02-02T20:52:51.847Z,73.08
2023-02-02T20:55:58.161Z,72.71
2023-02-02T20:59:01.278Z,72.64
2023-02-02T21:02:05.344Z,71.23
2023-02-02T21:05:07.849Z,71.33
2023-02-02T21:08:10.645Z,71.48
2023-02-02T21:11:16.275Z,71.86
2023-02-02T21:14:18.712Z,70.96
2023-02-02T21:17:21.203Z,70.40
2023-02-02T21:20:24.023Z,69.57
2023-02-02T21:23:27.207Z,68.86
2023-02-02T21:26:30.710Z,68.66
2023-02-02T21:29:33.504Z,68.61
2023-02-02T21:32:35.821Z,68.68
2023-02-02T21:35:38.239Z,69.08
2023-02-02T21:38:40.593Z,68.35
2023-02-02T21:41:43.388Z,67.66
2023-02-02T21:44:58.293Z,68.41
2023-02-02T21:48:22.006Z,67.18
2023-02-02T21:51:27.326Z,68.56
2023-02-02T21:54:36.896Z,68.95
2023-02-02T21:57:39.307Z,68.93
2023-02-02T22:00:43.892Z,67.97
2023-02-02T22:03:50.283Z,68.84
2023-02-02T22:07:13.748Z,68.95
2023-02-02T22:10:39.913Z,68.85
2023-02-02T22:13:42.243Z,69.01
2023-02-02T22:16:50.298Z,67.83
2023-02-02T22:20:15.805Z,68.12
2023-02-02T22:23:21.034Z,67.63
2023-02-02T22:26:33.580Z,67.96
2023-02-02T22:29:35.943Z,66.57
2023-02-02T22:32:38.309Z,66.62
2023-02-02T22:35:41.988Z,66.52
2023-02-02T22:38:44.339Z,67.24
2023-02-02T22:41:46.718Z,66.18
2023-02-02T22:44:49.160Z,66.03
2023-02-02T22:47:52.261Z,65.58
2023-02-02T22:50:54.665Z,66.01
2023-02-02T22:53:57.137Z,66.85
2023-02-02T22:56:59.510Z,66.51
2023-02-02T23:00:03.829Z,65.67
2023-02-02T23:03:07.439Z,63.70
2023-02-02T23:06:09.973Z,63.87
2023-02-02T23:09:12.373Z,62.94
2023-02-02T23:12:14.997Z,62.58
2023-02-02T23:15:19.286Z,62.38
2023-02-02T23:18:22.112Z,62.62
2023-02-02T23:21:24.990Z,63.15
2023-02-02T23:24:27.393Z,62.11
2023-02-02T23:27:29.725Z,61.25
2023-02-02T23:30:32.079Z,61.28
2023-02-02T23:33:34.546Z,60.65
2023-02-02T23:36:36.909Z,60.71
2023-02-02T23:39:39.329Z,61.94
2023-02-02T23:42:41.854Z,61.41
2023-02-02T23:45:44.254Z,62.19
2023-02-02T23:48:47.254Z,62.82
2023-02-02T23:51:50.199Z,62.27
2023-02-02T23:54:53.027Z,60.68
2023-02-02T23:57:55.465Z,60.33
